x

Los Angeles Pier F, Ca - 9410670 (pfxc1) Weather Station

1:30 - Sat 30th May 2015 All times are PDT. -7 hours from GMT.

  • Wind
    8mph, 10mph gusts
  • Ar Temp 66°f
  • Sea Pressure 1013.8mb
  • Los Angeles Pier F, Ca - 9410670
  • Los Angeles Pier F, Ca - 9410670

More Historic Weather Station data

Upgrade to MSW Pro to gain access to the past 30 days of data for over 8000 Wavebouys and Weather Stations around the globe.

Join Pro

Comparision Forecast

View Surf forecast
   
Sáb 05/30 1:30 8 10 mph 1013.8mb 66f
1:24 8 10 mph 1013.9mb 66f
1:18 9 10 mph 1014.1mb 66f
1:12 9 10 mph 1014.1mb 63f
1:06 9 10 mph 1014.1mb 63f
1:00 9 11 mph 1014.2mb 62f
12:54 9 11 mph 1014.1mb 62f
12:42 9 10 mph 1014.1mb 62f
12:36 10 11 mph 1014mb 62f
12:24 10 11 mph 1013.9mb 62f
12:12 10
mph
1014.3mb 65f
12:06 9 10 mph 1014.3mb 63f
11:54 10 11 mph 1014.1mb 62f
11:48 10 11 mph 1014.2mb 61f
11:42 10
mph
1014.1mb 61f
11:36 9 10 mph 1014.2mb 61f
11:18 9 10 mph 1014.2mb 63f
11:12 8 9 mph 1014.1mb 63f
11:00 9
mph
1014.4mb 64f
10:54 9
mph
1014.4mb 63f
10:48 9
mph
1014.4mb 62f
10:42 8 9 mph 1014.3mb 62f
10:36 9
mph
1014.3mb 63f
10:24 8 9 mph 1014.3mb 63f
10:18 9 10 mph 1014.3mb 62f
10:12 10
mph
1014.3mb 62f
10:06 10 11 mph 1014.3mb 62f
9:48 9 10 mph 1014.4mb 61f
9:42 9 10 mph 1014.4mb 61f
9:36 9 10 mph 1014.4mb 61f
9:24 9 10 mph 1014.4mb 60f
9:12 8 9 mph 1014.3mb 60f
9:06 7 8 mph 1014.2mb 60f
9:00 7 8 mph 1014.2mb 60f
8:48 7 8 mph 1014.3mb 60f
8:42 7 8 mph 1014.3mb 60f
8:36 6 7 mph 1014.2mb 59f
8:30 5 7 mph 1014.2mb 59f
8:06 2
mph
1013.8mb 59f
8:00 3 5 mph 1013.8mb 59f
7:54 2 5 mph 1013.7mb 59f
7:36 3 6 mph 1013.6mb 59f
7:24 3 5 mph 1013.5mb 59f
7:18 2 3 mph 1013.4mb 59f
7:06 3 5 mph 1013.2mb 58f
6:42 2 3 mph 1013.2mb 58f
6:24 2 5 mph 1013.2mb 58f
6:18 1 2 mph 1013.1mb 58f
6:12 3 5 mph 1012.9mb 58f
6:00 5 6 mph 1012.7mb 58f
5:54 5 6 mph 1012.7mb 58f
5:42 5 6 mph 1012.6mb 58f
5:36 5 6 mph 1012.6mb 58f
5:30 5 6 mph 1012.6mb 58f
4:54 6
mph
1012.4mb 59f
4:48 2 6 mph 1012.4mb 59f
4:18 3 5 mph 1012.3mb 59f
4:12 3 5 mph 1012.4mb 59f
3:36 2 3 mph 1012.1mb 59f
3:30 2 3 mph 1012.1mb 59f
3:18 2 3 mph 1012.1mb 59f
3:00 2 5 mph 1012.3mb 59f
2:48 5 6 mph 1012.5mb 59f
2:30 5 6 mph 1012.5mb 59f
2:24 5 6 mph 1012.5mb 59f
2:18 5 6 mph - 59f
2:12 5 6 mph - 59f
2:06 5
mph
- 59f
1:48 5 6 mph 1012.7mb 59f
1:42 3 5 mph 1012.7mb 59f
1:18 3
mph
1012.9mb 59f
1:12 5
mph
1012.9mb 59f
1:00 3
mph
1012.9mb 60f
12:54 3
mph
1012.9mb 60f
12:48 2 3 mph 1012.9mb 60f
12:36 2 5 mph 1013mb 60f
12:18 3 5 mph 1013.1mb 60f
12:06 3
mph
1013mb 60f
12:00 3
mph
1013mb 60f
Sex 05/29 11:54 3 5 mph 1012.9mb 60f
11:48 3 5 mph - 60f
11:36 2 5 mph - 60f
11:18 1 2 mph - 61f
11:12 2 3 mph - 61f
11:06 3 5 mph - 61f
10:54 3 5 mph 1012.6mb 61f
10:42 5
mph
1012.6mb 61f
10:36 3 5 mph 1012.6mb 61f
10:30 5 6 mph 1012.7mb 61f
10:24 5 6 mph 1012.7mb 61f
10:18 5
mph
1012.7mb 62f
10:12 5 6 mph 1012.6mb 62f
10:06 5
mph
1012.5mb 62f
10:00 3 5 mph 1012.4mb 62f
9:54 5
mph
1012.4mb 62f
9:48 5
mph
1012.4mb 62f
9:42 3 5 mph 1012.3mb 62f
9:36 5 6 mph 1012.2mb 62f
9:00 8 9 mph 1012mb 63f
8:36 8 10 mph 1011.8mb 63f
8:30 10 13 mph 1011.8mb 63f
8:18 9 11 mph 1011.8mb 64f
8:12 8 9 mph 1011.8mb 64f
8:00 8 10 mph 1011.7mb 64f
7:54 9 10 mph 1011.6mb 65f
7:42 8 10 mph 1011.5mb 66f
7:24 6 8 mph 1011.4mb 66f
7:00 6 7 mph 1011.2mb 68f
6:48 6 7 mph 1011.1mb 68f
6:42 7 8 mph 1011.1mb 69f
6:12 8 10 mph 1010.9mb 69f
6:06 7 9 mph 1011mb 69f
5:54 9 13 mph 1011mb 68f
5:42 11 13 mph 1010.9mb 68f
5:36 10 14 mph 1010.9mb 68f
5:30 13 14 mph 1010.8mb 68f
5:24 13 14 mph 1010.9mb 69f
5:06 11 13 mph 1011mb 70f
5:00 11 13 mph 1010.9mb 69f
4:48 9 10 mph 1011mb 69f
4:36 10 11 mph 1011.2mb 70f
4:30 10 11 mph 1011.2mb 69f
4:18 10 11 mph 1011.3mb 70f
3:48 13 14 mph 1011.6mb 68f
3:36 14 15 mph 1011.8mb 68f
3:30 14 15 mph 1011.8mb 67f
3:18 14 16 mph 1012mb 67f
3:06 16 18 mph 1012.1mb 67f
3:00 17 18 mph 1012.2mb 66f
2:54 18 20 mph 1012.3mb 66f
2:42 18 20 mph 1012.4mb 66f
2:30 17 20 mph 1012.5mb 66f
2:24 17 18 mph 1012.5mb 66f
2:12 16 18 mph 1012.6mb 66f
1:36  -  mph 1013.1mb -
1:24  -  mph 1013.1mb -
1:12  -  mph 1013.2mb -
12:48  -  mph 1013.4mb -
12:24 9
mph
1013.6mb 64f
12:12 8 9 mph 1013.7mb 62f
11:12 8 9 mph 1013.9mb 62f
11:00 8 9 mph 1013.7mb 62f
10:54 8 9 mph 1013.8mb 62f
10:30 7 8 mph 1013.8mb 63f
10:18 6 8 mph 1013.9mb 63f
10:12 6 7 mph 1014mb 63f
10:06 5 6 mph 1014.1mb 62f
9:48 5 6 mph 1014.2mb 62f
9:24 3 6 mph 1014.4mb 62f
9:18 6 7 mph 1014.3mb 62f
9:12 6 7 mph 1014.3mb 62f
8:48 1 3 mph 1014.3mb 61f
8:30  -  2 mph 1014.2mb 61f
8:18 2 3 mph 1014.2mb 60f
8:06 1 2 mph 1014.1mb 60f
8:00 1 2 mph 1014.1mb 60f
7:42  -  1 mph 1014mb 60f
7:36  -  1 mph 1014mb 60f
7:18 1 3 mph 1014.1mb 60f
7:06 5 7 mph 1014mb 60f
6:42  -  1 mph 1013.8mb 60f
6:36 3 6 mph 1013.7mb 59f
6:24 2 3 mph 1013.7mb 59f
6:18 2 3 mph 1013.6mb 59f
6:06 3 6 mph 1013.6mb 59f
5:54 1
mph
1013.5mb 59f
5:48  -  2 mph 1013.4mb 59f
5:42  -  1 mph 1013.4mb 59f
5:36  -  2 mph 1013.4mb 59f
5:18 1 3 mph 1013.3mb 59f
5:12  -  1 mph 1013.3mb 59f
5:06 1 2 mph 1013.2mb 59f
5:00 2 3 mph 1013.2mb 59f
4:54 5 7 mph 1013.3mb 59f
4:36 3 6 mph 1013.3mb 59f
4:24 3 5 mph 1013.4mb 59f
4:12 5 6 mph 1013.3mb 59f
4:06 3 7 mph 1013.3mb 59f
4:00 3 5 mph 1013.2mb 59f
3:54 5 7 mph 1013.2mb 59f
3:30 7 8 mph 1013.1mb 59f
3:24 6 8 mph 1013.1mb 59f
3:18 6 7 mph 1013.2mb 59f
3:00 8 9 mph 1013.3mb 59f
2:54 7 8 mph 1013.4mb 59f
2:42 7 8 mph 1013.5mb 60f
2:24 5 6 mph 1013.6mb 60f
2:18 6 7 mph 1013.6mb -
2:06 5 6 mph 1013.6mb -
2:00 5 6 mph 1013.6mb 59f
1:48 6 7 mph 1013.7mb 59f
1:36 7 8 mph 1013.7mb 59f
1:30 7 8 mph 1013.7mb 59f
1:24 7
mph
1013.7mb 59f
1:12 5 6 mph 1013.7mb 59f
1:06 6 7 mph 1013.7mb 59f
12:54 7 8 mph 1013.7mb 59f
12:36 8 9 mph 1013.7mb 59f
12:30 8 9 mph 1013.7mb 59f
12:18 6
mph
1013.7mb 59f
12:12 5 6 mph 1013.8mb 60f
12:06 5 6 mph 1013.8mb 60f
Qui 05/28 11:54 5
mph
1013.9mb 60f
11:48 5
mph
1013.9mb 60f
11:24 1 2 mph 1013.8mb 60f
10:54 5 6 mph 1014mb 60f
10:48 6 7 mph 1014mb 60f
10:42 6
mph
1013.9mb 60f
10:24 7 8 mph 1013.9mb 61f
10:18 6 8 mph 1013.8mb 61f
10:06 7 9 mph 1013.7mb 61f
9:54 8 9 mph 1013.7mb 61f
9:48 7 8 mph 1013.6mb 61f
9:42 7 8 mph 1013.5mb 61f
9:18 7 8 mph 1013.2mb 62f
9:00 6 7 mph 1013.1mb 62f
8:54 6 7 mph 1012.9mb 62f
8:48 5 6 mph 1012.8mb 62f
8:36 7 8 mph 1012.8mb 63f
8:18 7 8 mph 1012.6mb 64f
8:12 8
mph
1012.6mb 64f
7:54 8 9 mph 1012.3mb 64f
7:42 8 9 mph 1012.3mb 65f
7:36 6 8 mph 1012.3mb 66f
7:30 3 6 mph 1012.3mb 66f
7:24 5 6 mph 1012.2mb 67f
7:18 5 6 mph 1012.1mb 67f
7:12 5 6 mph 1012.2mb 67f
7:06 6 7 mph 1012.1mb 67f
6:54 7 8 mph 1012mb 67f
6:48 7 8 mph 1012mb 67f
6:42 7 8 mph 1012mb 68f
6:24 10 11 mph 1011.9mb 67f
6:18 8 10 mph 1011.9mb 68f
6:00 8 10 mph 1012mb 69f
5:54 8 11 mph 1011.9mb 69f
5:48 9 11 mph 1012mb 69f
5:42 9 11 mph 1012mb 69f
5:24 10 14 mph 1012mb 68f
5:18 10 13 mph 1012.2mb 69f
5:06 11 14 mph 1012.3mb 68f
5:00 13 14 mph 1012.3mb 68f
4:54 13 15 mph 1012.3mb 67f
4:48 13 14 mph 1012.3mb 66f
4:42 13 14 mph 1012.2mb 66f
4:36 14 16 mph 1012.2mb 65f
4:30 15 16 mph 1012.1mb 66f
4:24 15 16 mph 1012.1mb 66f
4:18 14 15 mph 1012.2mb 66f
4:12 14 16 mph 1012.3mb 66f
3:54 15 16 mph 1012.8mb 66f
3:48 15 16 mph 1012.8mb 66f
3:36 16 17 mph 1013mb 66f
3:24 14 15 mph 1013.1mb 66f
3:12 14 15 mph 1013.3mb 66f
3:06 14 16 mph 1013.3mb 66f
3:00 14 16 mph 1013.4mb 66f
2:54 14 15 mph 1013.6mb 66f
2:48 13 14 mph 1013.6mb 66f
2:42 14
mph
1013.8mb 67f
2:36 13 14 mph 1013.8mb 66f
2:30 13 14 mph 1013.9mb 67f
2:24 11 14 mph 1013.9mb 67f
2:18 11 13 mph 1013.9mb 67f
2:12 11 13 mph 1014mb 66f
2:06 11 14 mph 1014.1mb 66f
2:00 10 11 mph 1014.2mb 66f
1:54 10 11 mph 1014.3mb 67f
1:48 10 11 mph 1014.4mb 66f
1:42 9 13 mph 1014.4mb 64f
1:36 9 10 mph 1014.4mb 63f
1:12 9 10 mph 1014.7mb 63f
12:54 10
mph
1014.9mb 62f
12:42 10
mph
1015.1mb 62f
12:30 9 10 mph 1015.2mb 61f
12:24 9
mph
1015.3mb 62f
12:12 8
mph
1015.3mb 61f
12:06 8
mph
1015.3mb 62f
11:54 7 8 mph 1015.6mb 63f
11:42 8
mph
1015.5mb 61f
11:36 7 8 mph 1015.6mb 62f
11:30 7 8 mph 1015.6mb 61f
11:24 8 9 mph 1015.6mb 61f
11:18 8
mph
1015.7mb 62f
11:06 7
mph
1015.8mb 63f
11:00 7
mph
1015.8mb 63f
10:54 7
mph
1015.8mb 62f
10:48 6 7 mph 1015.8mb 62f
10:42 6 7 mph 1015.7mb 61f
10:36 7
mph
1015.6mb 61f
10:18 6 7 mph 1015.6mb 62f
9:54 6 7 mph 1015.6mb 60f
9:48 6
mph
1015.6mb 60f
9:42 6 7 mph 1015.6mb 61f
9:36 6
mph
1015.6mb 61f
9:24 5 6 mph 1015.4mb 60f
9:18  -  mph 1015.5mb 60f
9:12  -  mph 1015.5mb 60f
9:06  -  mph 1015.5mb 60f
8:48 3 6 mph 1015.4mb 60f
8:36 3 5 mph 1015.4mb 60f
8:18 3 5 mph 1015.4mb 60f
8:12 2 3 mph 1015.4mb 60f
8:00 5
mph
1015.4mb 60f
7:54 5 6 mph 1015.4mb 60f
7:48 3
mph
1015.3mb 60f
7:42 3 5 mph 1015.3mb 60f
7:36 5
mph
1015.3mb 60f
7:30 5 6 mph 1015.2mb 60f
7:24 6
mph
1015.1mb 60f
7:18 6 7 mph 1015mb 59f
7:12 6
mph
1015mb 59f
7:00 3 5 mph 1014.9mb 60f
6:54 3 5 mph 1014.9mb 60f
6:48 5 6 mph 1014.8mb 60f
6:42 5 6 mph 1014.8mb 60f
6:36 5 6 mph 1014.8mb 59f
6:18 3 6 mph 1014.7mb 60f
6:12 2 5 mph 1014.5mb 60f
6:06  -  2 mph 1014.4mb 60f
6:00 2 3 mph 1014.3mb 60f
5:54 2
mph
1014.3mb 60f
5:48 2 3 mph 1014.2mb 60f
5:18 3 6 mph 1014mb 60f
4:54 5 7 mph 1014mb 60f
4:48 3 5 mph 1014mb 60f
4:36 3 7 mph 1013.9mb 60f
4:24 5 6 mph 1013.8mb 60f
4:06 2
mph
1013.7mb 60f
3:48 1 3 mph 1013.8mb 59f
3:42 2
mph
1013.8mb 60f
3:36 1 2 mph 1013.9mb 59f
3:30 1 2 mph 1013.9mb 59f
3:24 2
mph
1013.9mb 59f
3:18 3 5 mph 1014mb 59f
3:12 1 2 mph 1013.9mb 58f
3:06 1 2 mph 1013.9mb 58f
2:06 2 3 mph 1014.2mb 59f
1:54 2 3 mph 1014.2mb 59f
1:48 2 3 mph 1014.2mb 59f
1:12  -  3 mph 1014.3mb 59f
1:06  -  2 mph 1014.4mb 60f
1:00  -  1 mph 1014.5mb 60f
12:54 2 3 mph 1014.6mb 60f
12:48 2 3 mph 1014.7mb 60f
12:36 2 5 mph 1014.7mb 60f
12:30 2 3 mph 1014.8mb 60f
12:18 2 3 mph - 60f
12:06 2 3 mph - 60f
Qua 05/27 11:54 1 2 mph 1015mb 59f
11:36  -  1 mph 1015mb 59f
11:06 6
mph
1015.1mb 61f
11:00 6
mph
1015mb 61f
10:54 6
mph
1015mb 61f
10:48 5 6 mph 1015mb 61f
10:36 6 7 mph 1014.8mb 60f
10:30 7 8 mph 1014.8mb 61f
10:24 7 8 mph 1014.7mb 61f
10:06 6 8 mph 1014.7mb 61f
9:48 7 9 mph 1014.5mb 61f
9:42 8 9 mph 1014.5mb 61f
9:36 7 9 mph 1014.4mb 61f
9:30 8 10 mph 1014.3mb 61f
9:24 9 10 mph 1014.2mb 61f
9:00 3 7 mph 1014.3mb 61f
8:54 2 3 mph 1014.3mb 61f
8:48 3
mph
1014.3mb 61f
8:42 3
mph
1014.3mb 61f
8:36 3 5 mph 1014.3mb 61f
8:30 5 6 mph 1014.3mb 61f
8:06 6 8 mph 1014.2mb 62f
7:54 8 10 mph 1014mb 62f
7:42 9 11 mph 1013.9mb 62f
7:36 9 11 mph 1013.9mb 62f
7:24 10 14 mph 1013.8mb 63f
7:12 10 14 mph 1013.6mb 64f
7:06 9 13 mph 1013.6mb 64f
6:48 10 14 mph 1013.5mb 64f
6:36 10 14 mph 1013.4mb 65f
6:24 9 11 mph 1013.4mb 66f
6:12 10 14 mph 1013.4mb 66f
6:06 9 13 mph 1013.3mb 66f
6:00 9 11 mph 1013.4mb 67f
5:54 10 13 mph 1013.4mb 67f
5:42 9 13 mph 1013.4mb 66f
5:30 9 13 mph 1013.5mb 67f
5:24 10 14 mph 1013.4mb 66f
5:18 11 15 mph 1013.5mb 66f
5:06 13 16 mph 1013.4mb 66f
4:54 11 14 mph 1013.5mb 67f
4:42 11 15 mph 1013.5mb 67f
4:36 11 14 mph 1013.6mb 67f
4:24 11 14 mph 1013.6mb 67f
4:06 11 14 mph 1013.6mb 67f
3:54 13 15 mph 1013.7mb 67f
2:54 14 17 mph 1014.2mb 67f
2:12 11 15 mph 1014.4mb 67f
2:06 11 14 mph 1014.5mb 67f
2:00 11 14 mph 1014.5mb 67f
1:54 11 14 mph 1014.6mb 67f
1:48 11 16 mph 1014.7mb 67f
1:42 13 16 mph 1014.7mb 67f
1:18 14 16 mph 1014.9mb 67f
1:06 13 15 mph 1015mb 67f
12:54 14 15 mph 1015.1mb 67f
12:36 14 15 mph 1015mb 66f
12:24 11 14 mph 1015mb 67f
12:12 11 13 mph 1015.2mb 67f
12:06 13 14 mph 1015.1mb 66f
11:54 10
mph
1015.2mb 66f
11:48 9 11 mph 1015.2mb 67f
11:30 10 11 mph 1015.3mb 65f
11:24 9 13 mph 1015.4mb 65f
11:12 10 13 mph 1015.4mb 65f
11:06 10 11 mph 1015.3mb 65f
10:54 8 13 mph 1015.3mb 65f
10:48 9 10 mph 1015.3mb 64f
10:42 8 10 mph 1015.3mb 64f
10:30 9 10 mph 1015.3mb 64f
10:24 8 9 mph 1015.3mb 64f
10:18 9 10 mph 1015.3mb 64f
10:12 8 9 mph 1015.3mb 64f
10:06 7 9 mph 1015.3mb 63f
9:54 2 3 mph 1015.3mb 63f
9:48 3
mph
1015.3mb 64f
9:42 3
mph
1015.4mb 64f
9:36 3 5 mph 1015.4mb 63f
9:30 5 6 mph 1015.4mb 63f
9:24 5 6 mph 1015.4mb 63f
9:18 6 7 mph 1015.3mb 63f
9:06 5 6 mph 1015.3mb 63f
9:00 5 7 mph 1015.3mb 62f
8:48 5 6 mph 1015.4mb 62f
8:36 6 7 mph 1015.3mb 62f
8:30 6 7 mph 1015.3mb 62f
8:18 5 6 mph 1015.3mb 62f
8:06 5 6 mph 1015.2mb 62f
7:54 5 6 mph 1015.2mb 61f
7:42 5 6 mph 1015mb 61f
7:36 5 6 mph 1015mb 61f
7:30 5 7 mph 1015mb 61f
7:18 5 6 mph 1015mb 61f
7:06 6 7 mph 1014.9mb 61f
7:00 6 7 mph 1014.8mb 61f
6:48 6 7 mph 1014.8mb 61f
6:30 3 5 mph 1014.6mb 61f
6:24 2 3 mph 1014.5mb 60f
6:00 3 5 mph 1014.4mb 60f
5:30 5 6 mph 1014.3mb 60f
5:24 6 7 mph 1014.3mb 60f
5:12 5 6 mph 1014.3mb 60f
4:48  -  2 mph 1014.2mb 60f
4:36  -  1 mph 1014.4mb 60f
4:24 2 3 mph 1014.5mb 61f
4:18 2 3 mph 1014.6mb 61f
4:12 3 5 mph 1014.7mb 61f
4:06 1 3 mph 1014.7mb 61f
3:48 5 7 mph 1014.7mb 61f
3:42 6 7 mph 1014.7mb 61f
3:36 7 8 mph 1014.7mb 61f
3:30 6 8 mph 1014.7mb 61f
3:24 6 8 mph 1014.7mb 61f
3:18 6 8 mph 1014.7mb 61f
3:12 5 7 mph 1014.7mb 61f
3:06 5 6 mph 1014.7mb 61f
3:00 5 6 mph 1014.8mb 61f
2:48 6 7 mph - -
2:36 6
mph
- -
2:30 5 6 mph 1014.8mb 61f
2:24 6
mph
1014.9mb 61f
2:18  -  mph 1015mb 61f
2:06  -  mph 1014.9mb 61f
1:54 5 6 mph 1014.8mb 61f
1:48 5 6 mph 1014.8mb 61f
1:36 3 5 mph 1014.9mb 61f
1:24 3 6 mph 1014.9mb 61f
1:18 5 6 mph 1014.9mb 61f
12:54 6
mph
1015.1mb 60f
12:48 6 8 mph 1015.2mb 60f
12:36 8
mph
1015.2mb 60f
12:24 7 8 mph - -
12:06 6 7 mph 1015.1mb -
Ter 05/26 11:54 6 7 mph 1015.1mb -
11:36 5 6 mph 1015mb -
11:30 3 6 mph 1015.1mb 61f
11:24 5 6 mph 1015.1mb 61f
11:18 7 8 mph 1015.1mb 61f
11:06 5 6 mph 1015.2mb 61f
10:48 3 5 mph 1015.3mb 60f
10:42 3 5 mph 1015.3mb 60f
10:36 3 5 mph 1015.3mb 60f
10:30 2
mph
1015.2mb 60f
10:24 1 2 mph 1015.1mb 60f
10:12 2 3 mph 1015.1mb 60f
9:48 1 2 mph 1014.9mb 60f
9:42 2
mph
1014.8mb 60f
9:36 2
mph
1014.8mb 60f